sensor_id;sensor_type;location;lat;lon;timestamp;temperature;humidity
9446;DHT22;4761;49.490;10.908;2022-10-31T00:01:20;19.90;55.80
9446;DHT22;4761;49.490;10.908;2022-10-31T00:03:46;19.90;55.90
9446;DHT22;4761;49.490;10.908;2022-10-31T00:06:11;19.90;55.90
9446;DHT22;4761;49.490;10.908;2022-10-31T00:08:37;20.00;56.00
9446;DHT22;4761;49.490;10.908;2022-10-31T00:11:03;19.90;55.90
9446;DHT22;4761;49.490;10.908;2022-10-31T00:13:28;20.00;56.00
9446;DHT22;4761;49.490;10.908;2022-10-31T00:15:54;19.90;55.80
9446;DHT22;4761;49.490;10.908;2022-10-31T00:18:19;19.90;55.80
9446;DHT22;4761;49.490;10.908;2022-10-31T00:20:45;19.90;55.70
9446;DHT22;4761;49.490;10.908;2022-10-31T00:23:11;19.90;55.80
9446;DHT22;4761;49.490;10.908;2022-10-31T00:25:38;20.00;55.70
9446;DHT22;4761;49.490;10.908;2022-10-31T00:28:05;19.90;55.50
9446;DHT22;4761;49.490;10.908;2022-10-31T00:30:31;19.90;55.50
9446;DHT22;4761;49.490;10.908;2022-10-31T00:32:57;19.90;55.50
9446;DHT22;4761;49.490;10.908;2022-10-31T00:35:23;19.90;55.50
9446;DHT22;4761;49.490;10.908;2022-10-31T00:37:48;19.90;55.50
9446;DHT22;4761;49.490;10.908;2022-10-31T00:40:14;19.90;55.40
9446;DHT22;4761;49.490;10.908;2022-10-31T00:42:40;19.90;55.30
9446;DHT22;4761;49.490;10.908;2022-10-31T00:45:08;19.90;55.20
9446;DHT22;4761;49.490;10.908;2022-10-31T00:47:34;19.90;55.20
9446;DHT22;4761;49.490;10.908;2022-10-31T00:49:59;19.90;55.10
9446;DHT22;4761;49.490;10.908;2022-10-31T00:52:25;19.90;55.00
9446;DHT22;4761;49.490;10.908;2022-10-31T00:54:50;19.90;55.00
9446;DHT22;4761;49.490;10.908;2022-10-31T00:57:16;19.90;54.90
9446;DHT22;4761;49.490;10.908;2022-10-31T00:59:41;19.90;54.90
9446;DHT22;4761;49.490;10.908;2022-10-31T01:02:07;19.90;54.90
9446;DHT22;4761;49.490;10.908;2022-10-31T01:04:32;19.90;54.90
9446;DHT22;4761;49.490;10.908;2022-10-31T01:06:58;19.90;54.80
9446;DHT22;4761;49.490;10.908;2022-10-31T01:09:23;19.90;54.70
9446;DHT22;4761;49.490;10.908;2022-10-31T01:11:49;19.80;54.70
9446;DHT22;4761;49.490;10.908;2022-10-31T01:14:14;19.80;54.70
9446;DHT22;4761;49.490;10.908;2022-10-31T01:16:40;19.80;54.70
9446;DHT22;4761;49.490;10.908;2022-10-31T01:19:05;19.80;54.70
9446;DHT22;4761;49.490;10.908;2022-10-31T01:21:32;19.80;54.70
9446;DHT22;4761;49.490;10.908;2022-10-31T01:23:58;19.80;54.70
9446;DHT22;4761;49.490;10.908;2022-10-31T01:26:26;19.80;54.60
9446;DHT22;4761;49.490;10.908;2022-10-31T01:28:52;19.80;54.70
9446;DHT22;4761;49.490;10.908;2022-10-31T01:31:20;19.90;54.80
9446;DHT22;4761;49.490;10.908;2022-10-31T01:33:46;19.80;54.70
9446;DHT22;4761;49.490;10.908;2022-10-31T01:36:20;19.80;54.70
9446;DHT22;4761;49.490;10.908;2022-10-31T01:38:46;19.80;54.70
9446;DHT22;4761;49.490;10.908;2022-10-31T01:41:14;19.80;54.60
9446;DHT22;4761;49.490;10.908;2022-10-31T01:43:44;19.80;54.60
9446;DHT22;4761;49.490;10.908;2022-10-31T01:46:10;19.80;54.50
9446;DHT22;4761;49.490;10.908;2022-10-31T01:48:36;19.80;54.50
9446;DHT22;4761;49.490;10.908;2022-10-31T01:51:02;19.80;54.50
9446;DHT22;4761;49.490;10.908;2022-10-31T01:53:30;19.80;54.40
9446;DHT22;4761;49.490;10.908;2022-10-31T01:55:56;19.80;54.40
9446;DHT22;4761;49.490;10.908;2022-10-31T01:58:25;19.80;54.40
9446;DHT22;4761;49.490;10.908;2022-10-31T02:00:56;19.80;54.50
9446;DHT22;4761;49.490;10.908;2022-10-31T02:03:23;19.80;54.50
9446;DHT22;4761;49.490;10.908;2022-10-31T02:05:50;19.80;54.50
9446;DHT22;4761;49.490;10.908;2022-10-31T02:08:29;19.80;54.40
9446;DHT22;4761;49.490;10.908;2022-10-31T02:11:00;19.80;54.40
9446;DHT22;4761;49.490;10.908;2022-10-31T02:13:26;19.80;54.30
9446;DHT22;4761;49.490;10.908;2022-10-31T02:15:56;19.80;54.30
9446;DHT22;4761;49.490;10.908;2022-10-31T02:18:24;19.80;54.10
9446;DHT22;4761;49.490;10.908;2022-10-31T02:21:28;19.80;54.10
9446;DHT22;4761;49.490;10.908;2022-10-31T02:34:19;19.70;53.80
9446;DHT22;4761;49.490;10.908;2022-10-31T02:37:09;19.70;53.70
9446;DHT22;4761;49.490;10.908;2022-10-31T02:42:38;19.70;53.60
9446;DHT22;4761;49.490;10.908;2022-10-31T02:45:20;19.70;53.40
9446;DHT22;4761;49.490;10.908;2022-10-31T02:47:48;19.70;53.40
9446;DHT22;4761;49.490;10.908;2022-10-31T02:50:21;19.70;53.40
9446;DHT22;4761;49.490;10.908;2022-10-31T02:52:52;19.70;53.30
9446;DHT22;4761;49.490;10.908;2022-10-31T02:58:01;19.70;53.30
9446;DHT22;4761;49.490;10.908;2022-10-31T03:00:30;19.70;53.30
9446;DHT22;4761;49.490;10.908;2022-10-31T03:08:57;19.70;53.30
9446;DHT22;4761;49.490;10.908;2022-10-31T03:11:23;19.70;53.40
9446;DHT22;4761;49.490;10.908;2022-10-31T03:14:00;19.70;53.40
9446;DHT22;4761;49.490;10.908;2022-10-31T03:16:50;19.60;53.90
9446;DHT22;4761;49.490;10.908;2022-10-31T03:19:19;19.60;53.30
9446;DHT22;4761;49.490;10.908;2022-10-31T03:21:58;19.60;53.40
9446;DHT22;4761;49.490;10.908;2022-10-31T03:24:29;19.60;53.30
9446;DHT22;4761;49.490;10.908;2022-10-31T03:26:58;19.60;53.30
9446;DHT22;4761;49.490;10.908;2022-10-31T03:29:28;19.70;53.40
9446;DHT22;4761;49.490;10.908;2022-10-31T03:32:02;19.60;53.30
9446;DHT22;4761;49.490;10.908;2022-10-31T03:34:29;19.60;53.30
9446;DHT22;4761;49.490;10.908;2022-10-31T03:36:58;19.60;53.30
9446;DHT22;4761;49.490;10.908;2022-10-31T03:39:25;19.60;53.20
9446;DHT22;4761;49.490;10.908;2022-10-31T03:44:31;19.60;53.10
9446;DHT22;4761;49.490;10.908;2022-10-31T03:46:57;19.60;53.10
9446;DHT22;4761;49.490;10.908;2022-10-31T03:49:23;19.60;53.60
9446;DHT22;4761;49.490;10.908;2022-10-31T03:51:57;19.60;53.00
9446;DHT22;4761;49.490;10.908;2022-10-31T03:54:31;19.60;53.00
9446;DHT22;4761;49.490;10.908;2022-10-31T03:57:19;19.60;53.00
9446;DHT22;4761;49.490;10.908;2022-10-31T03:59:55;19.60;53.00
9446;DHT22;4761;49.490;10.908;2022-10-31T04:02:27;19.60;53.00
9446;DHT22;4761;49.490;10.908;2022-10-31T04:04:54;19.60;53.00
9446;DHT22;4761;49.490;10.908;2022-10-31T04:07:21;19.60;52.90
9446;DHT22;4761;49.490;10.908;2022-10-31T04:09:50;19.60;52.80
9446;DHT22;4761;49.490;10.908;2022-10-31T04:12:16;19.60;52.70
9446;DHT22;4761;49.490;10.908;2022-10-31T04:14:44;19.60;52.70
9446;DHT22;4761;49.490;10.908;2022-10-31T04:17:14;19.60;52.80
9446;DHT22;4761;49.490;10.908;2022-10-31T04:19:40;19.60;52.80
9446;DHT22;4761;49.490;10.908;2022-10-31T04:22:06;19.60;52.80
9446;DHT22;4761;49.490;10.908;2022-10-31T04:24:32;19.60;52.90
9446;DHT22;4761;49.490;10.908;2022-10-31T04:26:57;19.60;52.90
9446;DHT22;4761;49.490;10.908;2022-10-31T04:29:23;19.60;52.90
9446;DHT22;4761;49.490;10.908;2022-10-31T04:31:48;19.60;52.80
9446;DHT22;4761;49.490;10.908;2022-10-31T04:34:14;19.60;52.80
9446;DHT22;4761;49.490;10.908;2022-10-31T04:36:39;19.60;52.80
9446;DHT22;4761;49.490;10.908;2022-10-31T04:39:05;19.60;52.90
9446;DHT22;4761;49.490;10.908;2022-10-31T04:41:30;19.60;53.00
9446;DHT22;4761;49.490;10.908;2022-10-31T04:43:56;19.50;52.80
9446;DHT22;4761;49.490;10.908;2022-10-31T04:46:21;19.60;52.90
9446;DHT22;4761;49.490;10.908;2022-10-31T04:48:47;19.60;52.90
9446;DHT22;4761;49.490;10.908;2022-10-31T04:51:12;19.60;52.80
9446;DHT22;4761;49.490;10.908;2022-10-31T04:53:38;19.60;53.40
9446;DHT22;4761;49.490;10.908;2022-10-31T04:56:04;19.60;52.70
9446;DHT22;4761;49.490;10.908;2022-10-31T04:58:29;19.60;52.70
9446;DHT22;4761;49.490;10.908;2022-10-31T05:00:55;19.60;52.60
9446;DHT22;4761;49.490;10.908;2022-10-31T05:03:21;19.50;52.50
9446;DHT22;4761;49.490;10.908;2022-10-31T05:05:48;19.50;52.50
9446;DHT22;4761;49.490;10.908;2022-10-31T05:08:14;19.50;52.50
9446;DHT22;4761;49.490;10.908;2022-10-31T05:10:40;19.50;52.50
9446;DHT22;4761;49.490;10.908;2022-10-31T05:13:05;19.50;52.40
9446;DHT22;4761;49.490;10.908;2022-10-31T05:15:31;19.50;52.40
9446;DHT22;4761;49.490;10.908;2022-10-31T05:17:57;19.50;52.50
9446;DHT22;4761;49.490;10.908;2022-10-31T05:20:28;19.50;52.40
9446;DHT22;4761;49.490;10.908;2022-10-31T05:22:55;19.50;52.50
9446;DHT22;4761;49.490;10.908;2022-10-31T05:25:23;19.50;52.50
9446;DHT22;4761;49.490;10.908;2022-10-31T05:27:50;19.50;52.40
9446;DHT22;4761;49.490;10.908;2022-10-31T05:30:19;19.50;52.40
9446;DHT22;4761;49.490;10.908;2022-10-31T05:32:47;19.50;52.40
9446;DHT22;4761;49.490;10.908;2022-10-31T05:35:15;19.50;53.00
9446;DHT22;4761;49.490;10.908;2022-10-31T05:37:40;19.50;52.40
9446;DHT22;4761;49.490;10.908;2022-10-31T05:40:09;19.50;52.50
9446;DHT22;4761;49.490;10.908;2022-10-31T05:42:37;19.50;52.50
9446;DHT22;4761;49.490;10.908;2022-10-31T05:45:03;19.50;52.50
9446;DHT22;4761;49.490;10.908;2022-10-31T05:47:29;19.50;52.50
9446;DHT22;4761;49.490;10.908;2022-10-31T05:49:54;19.50;52.50
9446;DHT22;4761;49.490;10.908;2022-10-31T05:52:20;19.50;52.50
9446;DHT22;4761;49.490;10.908;2022-10-31T05:54:45;19.50;52.60
9446;DHT22;4761;49.490;10.908;2022-10-31T05:57:11;19.50;52.50
9446;DHT22;4761;49.490;10.908;2022-10-31T05:59:36;19.30;51.90
9446;DHT22;4761;49.490;10.908;2022-10-31T06:02:02;19.30;51.90
9446;DHT22;4761;49.490;10.908;2022-10-31T06:04:27;19.30;52.00
9446;DHT22;4761;49.490;10.908;2022-10-31T06:06:53;19.30;52.00
9446;DHT22;4761;49.490;10.908;2022-10-31T06:09:18;19.40;52.20
9446;DHT22;4761;49.490;10.908;2022-10-31T06:11:44;19.50;52.30
9446;DHT22;4761;49.490;10.908;2022-10-31T06:14:09;19.60;52.50
9446;DHT22;4761;49.490;10.908;2022-10-31T06:16:35;19.60;52.40
9446;DHT22;4761;49.490;10.908;2022-10-31T06:19:00;19.70;52.40
9446;DHT22;4761;49.490;10.908;2022-10-31T06:21:26;19.80;52.40
9446;DHT22;4761;49.490;10.908;2022-10-31T06:23:51;19.80;52.20
9446;DHT22;4761;49.490;10.908;2022-10-31T06:26:17;19.90;52.10
9446;DHT22;4761;49.490;10.908;2022-10-31T06:28:43;19.90;51.90
9446;DHT22;4761;49.490;10.908;2022-10-31T06:31:08;20.00;51.70
9446;DHT22;4761;49.490;10.908;2022-10-31T06:33:34;20.00;51.60
9446;DHT22;4761;49.490;10.908;2022-10-31T06:36:00;20.10;51.40
9446;DHT22;4761;49.490;10.908;2022-10-31T06:38:27;20.10;51.20
9446;DHT22;4761;49.490;10.908;2022-10-31T06:40:53;20.10;51.00
9446;DHT22;4761;49.490;10.908;2022-10-31T06:43:19;20.20;50.90
9446;DHT22;4761;49.490;10.908;2022-10-31T06:45:45;20.20;50.70
9446;DHT22;4761;49.490;10.908;2022-10-31T06:48:10;20.20;50.50
9446;DHT22;4761;49.490;10.908;2022-10-31T06:50:36;20.30;50.40
9446;DHT22;4761;49.490;10.908;2022-10-31T06:53:01;20.30;50.20
9446;DHT22;4761;49.490;10.908;2022-10-31T06:55:27;20.30;50.00
9446;DHT22;4761;49.490;10.908;2022-10-31T06:57:53;20.30;50.00
9446;DHT22;4761;49.490;10.908;2022-10-31T07:00:20;20.30;49.80
9446;DHT22;4761;49.490;10.908;2022-10-31T07:03:06;20.40;50.00
9446;DHT22;4761;49.490;10.908;2022-10-31T07:05:32;20.50;50.20
9446;DHT22;4761;49.490;10.908;2022-10-31T07:08:04;20.40;50.10
9446;DHT22;4761;49.490;10.908;2022-10-31T07:10:32;20.30;49.60
9446;DHT22;4761;49.490;10.908;2022-10-31T07:13:02;20.20;49.50
9446;DHT22;4761;49.490;10.908;2022-10-31T07:15:30;20.20;49.60
9446;DHT22;4761;49.490;10.908;2022-10-31T07:18:02;20.20;49.70
9446;DHT22;4761;49.490;10.908;2022-10-31T07:20:28;20.20;50.00
9446;DHT22;4761;49.490;10.908;2022-10-31T07:22:54;20.20;50.00
9446;DHT22;4761;49.490;10.908;2022-10-31T07:25:20;20.20;50.20
9446;DHT22;4761;49.490;10.908;2022-10-31T07:27:45;20.30;50.30
9446;DHT22;4761;49.490;10.908;2022-10-31T07:30:12;20.20;50.20
9446;DHT22;4761;49.490;10.908;2022-10-31T07:32:39;20.30;50.30
9446;DHT22;4761;49.490;10.908;2022-10-31T07:35:09;20.30;50.20
9446;DHT22;4761;49.490;10.908;2022-10-31T07:37:35;20.30;50.10
9446;DHT22;4761;49.490;10.908;2022-10-31T07:40:02;20.30;50.10
9446;DHT22;4761;49.490;10.908;2022-10-31T07:42:27;20.40;50.10
9446;DHT22;4761;49.490;10.908;2022-10-31T07:44:53;20.40;50.10
9446;DHT22;4761;49.490;10.908;2022-10-31T07:47:18;20.40;50.10
9446;DHT22;4761;49.490;10.908;2022-10-31T07:49:44;20.40;50.10
9446;DHT22;4761;49.490;10.908;2022-10-31T07:52:09;20.40;50.10
9446;DHT22;4761;49.490;10.908;2022-10-31T07:54:35;20.40;50.10
9446;DHT22;4761;49.490;10.908;2022-10-31T07:57:00;20.50;50.20
9446;DHT22;4761;49.490;10.908;2022-10-31T07:59:26;20.50;50.10
9446;DHT22;4761;49.490;10.908;2022-10-31T08:01:52;20.50;50.20
9446;DHT22;4761;49.490;10.908;2022-10-31T08:04:18;20.50;50.20
9446;DHT22;4761;49.490;10.908;2022-10-31T08:06:43;20.60;50.30
9446;DHT22;4761;49.490;10.908;2022-10-31T08:09:09;20.60;50.30
9446;DHT22;4761;49.490;10.908;2022-10-31T08:11:34;20.60;50.30
9446;DHT22;4761;49.490;10.908;2022-10-31T08:14:00;20.60;50.30
9446;DHT22;4761;49.490;10.908;2022-10-31T08:16:26;20.60;50.30
9446;DHT22;4761;49.490;10.908;2022-10-31T08:18:52;20.60;50.40
9446;DHT22;4761;49.490;10.908;2022-10-31T08:21:19;20.60;50.50
9446;DHT22;4761;49.490;10.908;2022-10-31T08:23:45;20.60;50.60
9446;DHT22;4761;49.490;10.908;2022-10-31T08:26:10;20.70;50.70
9446;DHT22;4761;49.490;10.908;2022-10-31T08:28:36;20.70;51.40
9446;DHT22;4761;49.490;10.908;2022-10-31T08:31:01;20.70;50.90
9446;DHT22;4761;49.490;10.908;2022-10-31T08:33:27;20.70;51.00
9446;DHT22;4761;49.490;10.908;2022-10-31T08:35:52;20.70;51.10
9446;DHT22;4761;49.490;10.908;2022-10-31T08:38:18;20.70;51.10
9446;DHT22;4761;49.490;10.908;2022-10-31T08:40:47;20.70;51.30
9446;DHT22;4761;49.490;10.908;2022-10-31T08:43:14;20.70;51.40
9446;DHT22;4761;49.490;10.908;2022-10-31T08:45:41;20.70;51.50
9446;DHT22;4761;49.490;10.908;2022-10-31T08:48:11;20.70;51.60
9446;DHT22;4761;49.490;10.908;2022-10-31T08:50:37;20.70;51.70
9446;DHT22;4761;49.490;10.908;2022-10-31T08:53:03;20.70;51.90
9446;DHT22;4761;49.490;10.908;2022-10-31T08:55:29;20.80;52.10
9446;DHT22;4761;49.490;10.908;2022-10-31T08:57:57;20.70;52.10
9446;DHT22;4761;49.490;10.908;2022-10-31T09:00:23;20.70;52.20
9446;DHT22;4761;49.490;10.908;2022-10-31T09:02:55;20.70;52.60
9446;DHT22;4761;49.490;10.908;2022-10-31T09:05:21;20.90;53.30
9446;DHT22;4761;49.490;10.908;2022-10-31T09:07:46;20.80;53.40
9446;DHT22;4761;49.490;10.908;2022-10-31T09:10:12;20.70;53.80
9446;DHT22;4761;49.490;10.908;2022-10-31T09:12:37;20.60;54.20
9446;DHT22;4761;49.490;10.908;2022-10-31T09:15:03;20.60;54.60
9446;DHT22;4761;49.490;10.908;2022-10-31T09:17:31;20.50;55.10
9446;DHT22;4761;49.490;10.908;2022-10-31T09:19:57;20.40;55.30
9446;DHT22;4761;49.490;10.908;2022-10-31T09:22:22;20.40;55.60
9446;DHT22;4761;49.490;10.908;2022-10-31T09:24:48;20.30;56.40
9446;DHT22;4761;49.490;10.908;2022-10-31T09:27:13;20.20;55.80
9446;DHT22;4761;49.490;10.908;2022-10-31T09:29:39;20.20;56.20
9446;DHT22;4761;49.490;10.908;2022-10-31T09:32:04;20.20;56.40
9446;DHT22;4761;49.490;10.908;2022-10-31T09:34:30;20.10;56.50
9446;DHT22;4761;49.490;10.908;2022-10-31T09:36:55;20.10;56.70
9446;DHT22;4761;49.490;10.908;2022-10-31T09:39:21;20.20;56.90
9446;DHT22;4761;49.490;10.908;2022-10-31T09:44:24;20.20;57.10
9446;DHT22;4761;49.490;10.908;2022-10-31T09:49:59;20.20;57.40
9446;DHT22;4761;49.490;10.908;2022-10-31T09:52:34;20.20;57.50
9446;DHT22;4761;49.490;10.908;2022-10-31T09:58:15;20.20;57.60
9446;DHT22;4761;49.490;10.908;2022-10-31T10:00:43;20.30;57.70
9446;DHT22;4761;49.490;10.908;2022-10-31T10:03:42;20.30;57.70
9446;DHT22;4761;49.490;10.908;2022-10-31T10:06:19;20.40;57.80
9446;DHT22;4761;49.490;10.908;2022-10-31T10:08:46;20.30;57.80
9446;DHT22;4761;49.490;10.908;2022-10-31T10:13:57;20.30;58.10
9446;DHT22;4761;49.490;10.908;2022-10-31T10:16:35;20.30;58.30
9446;DHT22;4761;49.490;10.908;2022-10-31T10:30:30;20.30;58.80
9446;DHT22;4761;49.490;10.908;2022-10-31T10:32:59;20.40;58.90
9446;DHT22;4761;49.490;10.908;2022-10-31T10:35:49;20.40;59.10
9446;DHT22;4761;49.490;10.908;2022-10-31T10:40:44;20.40;59.20
9446;DHT22;4761;49.490;10.908;2022-10-31T10:43:36;20.50;59.10
9446;DHT22;4761;49.490;10.908;2022-10-31T10:52:10;20.70;59.40
9446;DHT22;4761;49.490;10.908;2022-10-31T10:54:54;20.70;59.50
9446;DHT22;4761;49.490;10.908;2022-10-31T10:57:34;20.80;59.40
9446;DHT22;4761;49.490;10.908;2022-10-31T11:00:30;20.90;59.50
9446;DHT22;4761;49.490;10.908;2022-10-31T11:02:56;21.00;59.40
9446;DHT22;4761;49.490;10.908;2022-10-31T11:05:30;21.10;59.40
9446;DHT22;4761;49.490;10.908;2022-10-31T11:07:58;21.20;59.40
9446;DHT22;4761;49.490;10.908;2022-10-31T11:10:23;21.30;59.50
9446;DHT22;4761;49.490;10.908;2022-10-31T11:13:06;21.30;59.40
9446;DHT22;4761;49.490;10.908;2022-10-31T11:15:37;21.40;59.50
9446;DHT22;4761;49.490;10.908;2022-10-31T11:18:03;21.50;59.50
9446;DHT22;4761;49.490;10.908;2022-10-31T11:20:32;21.60;59.60
9446;DHT22;4761;49.490;10.908;2022-10-31T11:25:29;21.70;59.80
9446;DHT22;4761;49.490;10.908;2022-10-31T11:28:03;21.80;59.80
9446;DHT22;4761;49.490;10.908;2022-10-31T11:30:29;21.80;59.70
9446;DHT22;4761;49.490;10.908;2022-10-31T11:32:56;21.90;59.70
9446;DHT22;4761;49.490;10.908;2022-10-31T11:35:24;22.00;59.70
9446;DHT22;4761;49.490;10.908;2022-10-31T11:37:51;22.00;59.80
9446;DHT22;4761;49.490;10.908;2022-10-31T11:40:21;22.00;59.70
9446;DHT22;4761;49.490;10.908;2022-10-31T11:42:49;22.00;59.70
9446;DHT22;4761;49.490;10.908;2022-10-31T11:45:17;22.10;59.90
9446;DHT22;4761;49.490;10.908;2022-10-31T11:47:49;22.10;59.80
9446;DHT22;4761;49.490;10.908;2022-10-31T11:50:24;22.10;59.80
9446;DHT22;4761;49.490;10.908;2022-10-31T11:52:51;22.10;59.70
9446;DHT22;4761;49.490;10.908;2022-10-31T11:55:36;22.20;59.90
9446;DHT22;4761;49.490;10.908;2022-10-31T11:58:02;22.30;60.00
9446;DHT22;4761;49.490;10.908;2022-10-31T12:00:38;22.30;60.00
9446;DHT22;4761;49.490;10.908;2022-10-31T12:03:29;22.30;59.90
9446;DHT22;4761;49.490;10.908;2022-10-31T12:06:18;22.30;59.90
9446;DHT22;4761;49.490;10.908;2022-10-31T12:08:44;22.30;59.90
9446;DHT22;4761;49.490;10.908;2022-10-31T12:19:02;22.30;60.10
9446;DHT22;4761;49.490;10.908;2022-10-31T12:22:02;22.40;60.10
9446;DHT22;4761;49.490;10.908;2022-10-31T12:27:29;22.40;60.00
9446;DHT22;4761;49.490;10.908;2022-10-31T12:35:26;22.40;60.20
9446;DHT22;4761;49.490;10.908;2022-10-31T12:41:14;22.20;60.60
9446;DHT22;4761;49.490;10.908;2022-10-31T12:49:33;22.00;60.30
9446;DHT22;4761;49.490;10.908;2022-10-31T12:52:15;21.90;60.40
9446;DHT22;4761;49.490;10.908;2022-10-31T12:55:14;21.90;60.70
9446;DHT22;4761;49.490;10.908;2022-10-31T12:57:45;21.90;61.00
9446;DHT22;4761;49.490;10.908;2022-10-31T13:00:16;21.80;61.10
9446;DHT22;4761;49.490;10.908;2022-10-31T13:05:43;21.80;61.40
9446;DHT22;4761;49.490;10.908;2022-10-31T13:08:13;21.70;61.60
9446;DHT22;4761;49.490;10.908;2022-10-31T13:10:46;21.70;61.90
9446;DHT22;4761;49.490;10.908;2022-10-31T13:13:31;21.60;59.90
9446;DHT22;4761;49.490;10.908;2022-10-31T13:16:04;21.60;60.30
9446;DHT22;4761;49.490;10.908;2022-10-31T13:18:40;21.60;60.90
9446;DHT22;4761;49.490;10.908;2022-10-31T13:21:12;21.60;61.30
9446;DHT22;4761;49.490;10.908;2022-10-31T13:23:41;21.60;61.80
9446;DHT22;4761;49.490;10.908;2022-10-31T13:26:14;21.60;62.10
9446;DHT22;4761;49.490;10.908;2022-10-31T13:28:57;21.60;62.50
9446;DHT22;4761;49.490;10.908;2022-10-31T13:31:25;21.70;62.70
9446;DHT22;4761;49.490;10.908;2022-10-31T13:34:19;21.80;62.80
9446;DHT22;4761;49.490;10.908;2022-10-31T13:37:03;21.80;63.20
9446;DHT22;4761;49.490;10.908;2022-10-31T13:39:39;21.90;62.90
9446;DHT22;4761;49.490;10.908;2022-10-31T13:42:49;22.00;63.00
9446;DHT22;4761;49.490;10.908;2022-10-31T13:45:20;22.00;63.00
9446;DHT22;4761;49.490;10.908;2022-10-31T13:48:00;22.10;63.10
9446;DHT22;4761;49.490;10.908;2022-10-31T13:50:29;22.20;63.10
9446;DHT22;4761;49.490;10.908;2022-10-31T13:53:44;22.30;63.30
9446;DHT22;4761;49.490;10.908;2022-10-31T13:58:35;22.30;63.60
9446;DHT22;4761;49.490;10.908;2022-10-31T14:03:38;22.30;63.70
9446;DHT22;4761;49.490;10.908;2022-10-31T14:06:05;22.30;63.80
9446;DHT22;4761;49.490;10.908;2022-10-31T14:08:34;22.30;63.90
9446;DHT22;4761;49.490;10.908;2022-10-31T14:11:00;22.40;64.00
9446;DHT22;4761;49.490;10.908;2022-10-31T14:13:29;22.40;64.10
9446;DHT22;4761;49.490;10.908;2022-10-31T14:16:00;22.40;64.10
9446;DHT22;4761;49.490;10.908;2022-10-31T14:18:39;22.40;64.10
9446;DHT22;4761;49.490;10.908;2022-10-31T14:23:53;22.40;64.10
9446;DHT22;4761;49.490;10.908;2022-10-31T14:28:53;22.50;64.30
9446;DHT22;4761;49.490;10.908;2022-10-31T14:43:08;22.60;64.30
9446;DHT22;4761;49.490;10.908;2022-10-31T14:48:30;22.60;64.30
9446;DHT22;4761;49.490;10.908;2022-10-31T14:51:02;22.60;64.30
9446;DHT22;4761;49.490;10.908;2022-10-31T14:53:34;22.60;64.20
9446;DHT22;4761;49.490;10.908;2022-10-31T14:56:01;22.50;63.20
9446;DHT22;4761;49.490;10.908;2022-10-31T14:58:39;22.60;63.40
9446;DHT22;4761;49.490;10.908;2022-10-31T15:01:06;22.60;63.40
9446;DHT22;4761;49.490;10.908;2022-10-31T15:03:38;22.60;63.60
9446;DHT22;4761;49.490;10.908;2022-10-31T15:06:13;22.60;63.50
9446;DHT22;4761;49.490;10.908;2022-10-31T15:08:43;22.60;63.50
9446;DHT22;4761;49.490;10.908;2022-10-31T15:11:17;22.60;63.40
9446;DHT22;4761;49.490;10.908;2022-10-31T15:13:52;22.40;64.50
9446;DHT22;4761;49.490;10.908;2022-10-31T15:16:33;22.20;62.00
9446;DHT22;4761;49.490;10.908;2022-10-31T15:19:11;22.10;59.60
9446;DHT22;4761;49.490;10.908;2022-10-31T15:21:42;22.00;59.10
9446;DHT22;4761;49.490;10.908;2022-10-31T15:24:13;21.90;59.50
9446;DHT22;4761;49.490;10.908;2022-10-31T15:26:45;21.90;60.30
9446;DHT22;4761;49.490;10.908;2022-10-31T15:29:19;21.80;60.80
9446;DHT22;4761;49.490;10.908;2022-10-31T15:31:57;21.80;61.30
9446;DHT22;4761;49.490;10.908;2022-10-31T15:34:42;21.70;61.70
9446;DHT22;4761;49.490;10.908;2022-10-31T15:37:12;21.80;62.10
9446;DHT22;4761;49.490;10.908;2022-10-31T15:39:39;21.80;62.30
9446;DHT22;4761;49.490;10.908;2022-10-31T15:42:32;21.70;62.50
9446;DHT22;4761;49.490;10.908;2022-10-31T15:45:05;21.70;62.70
9446;DHT22;4761;49.490;10.908;2022-10-31T15:47:31;21.70;62.80
9446;DHT22;4761;49.490;10.908;2022-10-31T15:49:59;21.70;63.60
9446;DHT22;4761;49.490;10.908;2022-10-31T15:52:43;21.70;62.90
9446;DHT22;4761;49.490;10.908;2022-10-31T15:57:39;21.70;63.10
9446;DHT22;4761;49.490;10.908;2022-10-31T16:00:20;21.60;63.10
9446;DHT22;4761;49.490;10.908;2022-10-31T16:02:46;21.70;63.20
9446;DHT22;4761;49.490;10.908;2022-10-31T16:05:16;21.60;63.10
9446;DHT22;4761;49.490;10.908;2022-10-31T16:07:48;21.60;63.30
9446;DHT22;4761;49.490;10.908;2022-10-31T16:10:23;21.60;63.30
9446;DHT22;4761;49.490;10.908;2022-10-31T16:12:49;21.60;63.30
9446;DHT22;4761;49.490;10.908;2022-10-31T16:15:16;21.60;63.30
9446;DHT22;4761;49.490;10.908;2022-10-31T16:17:45;21.60;63.40
9446;DHT22;4761;49.490;10.908;2022-10-31T16:20:37;21.50;63.30
9446;DHT22;4761;49.490;10.908;2022-10-31T16:23:03;21.50;63.30
9446;DHT22;4761;49.490;10.908;2022-10-31T16:25:34;21.50;63.40
9446;DHT22;4761;49.490;10.908;2022-10-31T16:28:05;21.40;63.40
9446;DHT22;4761;49.490;10.908;2022-10-31T16:30:48;21.40;63.40
9446;DHT22;4761;49.490;10.908;2022-10-31T16:33:21;21.40;63.40
9446;DHT22;4761;49.490;10.908;2022-10-31T16:35:48;21.40;63.50
9446;DHT22;4761;49.490;10.908;2022-10-31T16:38:14;21.40;63.50
9446;DHT22;4761;49.490;10.908;2022-10-31T16:40:39;21.40;63.50
9446;DHT22;4761;49.490;10.908;2022-10-31T16:43:10;21.40;63.50
9446;DHT22;4761;49.490;10.908;2022-10-31T16:45:36;21.40;63.40
9446;DHT22;4761;49.490;10.908;2022-10-31T16:48:08;21.30;63.30
9446;DHT22;4761;49.490;10.908;2022-10-31T16:50:35;21.30;63.30
9446;DHT22;4761;49.490;10.908;2022-10-31T16:53:02;21.30;63.30
9446;DHT22;4761;49.490;10.908;2022-10-31T16:55:27;21.30;63.30
9446;DHT22;4761;49.490;10.908;2022-10-31T16:57:56;21.20;63.30
9446;DHT22;4761;49.490;10.908;2022-10-31T17:00:23;21.30;63.30
9446;DHT22;4761;49.490;10.908;2022-10-31T17:02:54;21.20;63.20
9446;DHT22;4761;49.490;10.908;2022-10-31T17:05:22;21.20;63.20
9446;DHT22;4761;49.490;10.908;2022-10-31T17:07:55;21.20;63.30
9446;DHT22;4761;49.490;10.908;2022-10-31T17:10:21;21.20;63.20
9446;DHT22;4761;49.490;10.908;2022-10-31T17:12:47;21.20;63.10
9446;DHT22;4761;49.490;10.908;2022-10-31T17:15:27;21.20;62.90
9446;DHT22;4761;49.490;10.908;2022-10-31T17:17:54;21.20;62.90
9446;DHT22;4761;49.490;10.908;2022-10-31T17:22:50;21.10;62.70
9446;DHT22;4761;49.490;10.908;2022-10-31T17:25:21;21.10;62.70
9446;DHT22;4761;49.490;10.908;2022-10-31T17:27:47;21.00;62.50
9446;DHT22;4761;49.490;10.908;2022-10-31T17:30:13;21.10;62.60
9446;DHT22;4761;49.490;10.908;2022-10-31T17:32:40;21.10;62.50
9446;DHT22;4761;49.490;10.908;2022-10-31T17:35:07;21.00;62.30
9446;DHT22;4761;49.490;10.908;2022-10-31T17:37:33;21.00;62.30
9446;DHT22;4761;49.490;10.908;2022-10-31T17:39:59;21.00;62.30
9446;DHT22;4761;49.490;10.908;2022-10-31T17:42:24;21.00;62.20
9446;DHT22;4761;49.490;10.908;2022-10-31T17:44:50;21.00;62.20
9446;DHT22;4761;49.490;10.908;2022-10-31T17:47:15;20.90;62.00
9446;DHT22;4761;49.490;10.908;2022-10-31T17:49:41;20.90;62.00
9446;DHT22;4761;49.490;10.908;2022-10-31T17:52:06;20.90;61.90
9446;DHT22;4761;49.490;10.908;2022-10-31T17:54:32;20.90;61.90
9446;DHT22;4761;49.490;10.908;2022-10-31T17:56:57;20.90;61.90